Time;durP1;ratioP1;P1;durP2;ratioP2;P2;SDS_P1;SDS_P2;PMS_P1;PMS_P2;Temp;Humidity;BMP_temperature;BMP_pressure;BME280_temperature;BME280_humidity;BME280_pressure;Samples;Min_cycle;Max_cycle;Signal;HPM_P1;HPM_P2
2022/10/29 00:00:51;;;;;;;;;;;;;;;;;;5056251;28;20015;-76
2022/10/29 00:03:19;;;;;;;;;;;;;;;;;;5055559;28;20007;-76
2022/10/29 00:05:54;;;;;;;;;;;;;;;;;;5056138;28;19976;-76
2022/10/29 00:08:20;;;;;;;;;;;;;;;;;;5055404;28;19982;-76
2022/10/29 00:10:48;;;;;;;;;;;;;;;;;;5054711;28;20385;-76
2022/10/29 00:13:15;;;;;;;;;;;;;;;;;;5054769;28;19956;-76
2022/10/29 00:15:42;;;;;;;;;;;;;;;;;;5054284;28;19978;-76
2022/10/29 00:18:08;;;;;;;;;;;;;;;;;;5054025;28;19986;-76
2022/10/29 00:20:35;;;;;;;;;;;;;;;;;;5055017;28;20015;-76
2022/10/29 00:23:01;;;;;;;;;;;;;;;;;;5054588;28;19968;-76
2022/10/29 00:25:27;;;;;;;;;;;;;;;;;;5054404;28;19925;-76
2022/10/29 00:27:56;;;;;;;;;;;;;;;;;;5053299;28;19925;-76
2022/10/29 00:30:23;;;;;;;;;;;;;;;;;;5054593;28;20008;-76
2022/10/29 00:32:51;;;;;;;;;;;;;;;;;;5053240;28;19967;-76
2022/10/29 00:35:17;;;;;;;;;;;;;;;;;;5054486;28;19990;-76
2022/10/29 00:37:43;;;;;;;;;;;;;;;;;;5053484;28;20353;-76
2022/10/29 00:40:11;;;;;;;;;;;;;;;;;;5053555;28;20468;-76
2022/10/29 00:42:37;;;;;;;;;;;;;;;;;;5054790;28;19931;-76
2022/10/29 00:45:06;;;;;;;;;;;;;;;;;;5071801;28;19920;-75
2022/10/29 00:47:34;;;;;;;;;;;;;;;;;;5077186;28;19912;-75
2022/10/29 00:50:03;;;;;;;;;;;;;;;;;;5076699;28;19967;-75
2022/10/29 00:52:30;;;;;;;;;;;;;;;;;;5061333;28;20003;-75
2022/10/29 00:54:58;;;;;;;;;;;;;;;;;;5055628;28;19924;-76
2022/10/29 00:57:27;;;;;;;;;;;;;;;;;;5055224;28;19971;-76
2022/10/29 00:59:54;;;;;;;;;;;;;;;;;;5055538;28;19924;-76
2022/10/29 01:02:22;;;;;;;;;;;;;;;;;;5056097;28;19967;-76
2022/10/29 01:04:49;;;;;;;;;;;;;;;;;;5034717;28;19979;-76
2022/10/29 01:07:15;;;;;;;;;;;;;;;;;;5033227;28;20015;-76
2022/10/29 01:09:42;;;;;;;;;;;;;;;;;;5033667;28;20012;-76
2022/10/29 01:12:18;;;;;;;;;;;;;;;;;;5033789;28;19964;-76
2022/10/29 01:14:49;;;;;;;;;;;;;;;;;;5033203;28;19929;-76
2022/10/29 01:17:21;;;;;;;;;;;;;;;;;;5033368;28;19971;-75
2022/10/29 01:19:59;;;;;;;;;;;;;;;;;;5033549;28;20428;-75
2022/10/29 01:22:30;;;;;;;;;;;;;;;;;;5033824;28;19932;-75
2022/10/29 01:25:06;;;;;;;;;;;;;;;;;;5034700;28;20016;-76
2022/10/29 01:27:48;;;;;;;;;;;;;;;;;;5034020;28;20017;-75
2022/10/29 01:30:18;;;;;;;;;;;;;;;;;;5034440;28;19975;-76
2022/10/29 01:33:00;;;;;;;;;;;;;;;;;;5034282;28;19925;-75
2022/10/29 01:35:30;;;;;;;;;;;;;;;;;;5034286;28;19992;-75
2022/10/29 01:38:02;;;;;;;;;;;;;;;;;;5033698;28;19929;-76
2022/10/29 01:40:33;;;;;;;;;;;;;;;;;;5034528;28;20346;-76
2022/10/29 01:43:04;;;;;;;;;;;;;;;;;;5033579;28;19969;-76
2022/10/29 01:45:33;;;;;;;;;;;;;;;;;;5033724;28;19925;-76
2022/10/29 01:48:02;;;;;;;;;;;;;;;;;;5033369;28;19932;-75
2022/10/29 01:50:29;;;;;;;;;;;;;;;;;;5033558;28;19931;-76
2022/10/29 01:52:55;;;;;;;;;;;;;;;;;;5040302;28;20016;-77
2022/10/29 01:55:23;;;;;;;;;;;;;;;;;;5037278;28;19976;-74
2022/10/29 01:57:49;;;;;;;;;;;;;;;;;;5034409;28;19925;-76
2022/10/29 02:00:18;;;;;;;;;;;;;;;;;;5034175;28;20021;-76
2022/10/29 02:02:54;;;;;;;;;;;;;;;;;;5040235;28;20456;-75
2022/10/29 02:05:27;;;;;;;;;;;;;;;;;;5073964;28;20023;-75
2022/10/29 02:07:54;;;;;;;;;;;;;;;;;;5073533;28;19935;-75
2022/10/29 02:10:24;;;;;;;;;;;;;;;;;;5073595;28;19928;-76
2022/10/29 02:12:51;;;;;;;;;;;;;;;;;;5075060;28;20412;-74
2022/10/29 02:15:19;;;;;;;;;;;;;;;;;;5073672;28;20400;-76
2022/10/29 02:17:46;;;;;;;;;;;;;;;;;;5067740;28;19980;-75
2022/10/29 02:20:13;;;;;;;;;;;;;;;;;;5053811;28;20019;-76
2022/10/29 02:22:41;;;;;;;;;;;;;;;;;;5053285;28;20021;-76
2022/10/29 02:25:08;;;;;;;;;;;;;;;;;;5052914;28;19975;-76
2022/10/29 02:27:34;;;;;;;;;;;;;;;;;;5053241;28;19971;-76
2022/10/29 02:30:01;;;;;;;;;;;;;;;;;;5053299;28;20020;-76
2022/10/29 02:32:27;;;;;;;;;;;;;;;;;;5052988;28;20021;-76
2022/10/29 02:34:54;;;;;;;;;;;;;;;;;;5053635;28;19925;-76
2022/10/29 02:37:20;;;;;;;;;;;;;;;;;;5053100;28;20016;-76
2022/10/29 02:39:48;;;;;;;;;;;;;;;;;;5053270;28;20387;-76
2022/10/29 02:42:14;;;;;;;;;;;;;;;;;;5053638;28;19925;-76
2022/10/29 02:44:41;;;;;;;;;;;;;;;;;;5053256;28;20368;-76
2022/10/29 02:47:07;;;;;;;;;;;;;;;;;;5052469;28;19948;-76
2022/10/29 02:49:34;;;;;;;;;;;;;;;;;;5053646;28;19968;-76
2022/10/29 02:52:00;;;;;;;;;;;;;;;;;;5056277;28;19984;-76
2022/10/29 02:54:27;;;;;;;;;;;;;;;;;;5056640;28;19931;-76
2022/10/29 02:56:54;;;;;;;;;;;;;;;;;;5055965;28;19972;-76
2022/10/29 02:59:21;;;;;;;;;;;;;;;;;;5056823;28;19976;-75
2022/10/29 03:01:47;;;;;;;;;;;;;;;;;;5056539;28;19925;-76
2022/10/29 03:04:14;;;;;;;;;;;;;;;;;;5071391;28;19924;-76
2022/10/29 03:06:40;;;;;;;;;;;;;;;;;;5076051;28;20015;-76
2022/10/29 03:09:07;;;;;;;;;;;;;;;;;;5076546;28;20015;-76
2022/10/29 03:11:33;;;;;;;;;;;;;;;;;;5076294;28;19929;-75
2022/10/29 03:14:01;;;;;;;;;;;;;;;;;;5076678;28;19929;-76
2022/10/29 03:16:28;;;;;;;;;;;;;;;;;;5075685;28;20356;-75
2022/10/29 03:18:54;;;;;;;;;;;;;;;;;;5076078;28;20256;-75
2022/10/29 03:21:21;;;;;;;;;;;;;;;;;;5075651;28;19967;-76
2022/10/29 03:23:47;;;;;;;;;;;;;;;;;;5076151;28;19974;-76
2022/10/29 03:26:14;;;;;;;;;;;;;;;;;;5075859;28;19967;-75
2022/10/29 03:28:40;;;;;;;;;;;;;;;;;;5075504;28;20031;-76
2022/10/29 03:31:08;;;;;;;;;;;;;;;;;;5076101;28;20019;-75
2022/10/29 03:33:35;;;;;;;;;;;;;;;;;;5075657;28;20011;-74
2022/10/29 03:36:02;;;;;;;;;;;;;;;;;;5074281;28;19928;-74
2022/10/29 03:38:29;;;;;;;;;;;;;;;;;;5074071;28;19924;-74
2022/10/29 03:40:55;;;;;;;;;;;;;;;;;;5082089;28;19924;-74
2022/10/29 03:43:22;;;;;;;;;;;;;;;;;;5098058;28;19923;-74
2022/10/29 03:45:51;;;;;;;;;;;;;;;;;;5098580;28;19912;-75
2022/10/29 03:48:19;;;;;;;;;;;;;;;;;;5080908;28;20011;-75
2022/10/29 03:50:53;;;;;;;;;;;;;;;;;;5075863;28;20023;-75
2022/10/29 03:53:19;;;;;;;;;;;;;;;;;;5074740;28;20281;-74
2022/10/29 03:55:46;;;;;;;;;;;;;;;;;;5074376;28;19930;-74
2022/10/29 03:58:12;;;;;;;;;;;;;;;;;;5073580;28;19925;-74
2022/10/29 04:00:39;;;;;;;;;;;;;;;;;;5073492;28;19928;-74
2022/10/29 04:03:05;;;;;;;;;;;;;;;;;;5067396;28;19968;-75
2022/10/29 04:05:33;;;;;;;;;;;;;;;;;;5054036;28;19925;-75
2022/10/29 04:07:59;;;;;;;;;;;;;;;;;;5053676;28;19960;-76
2022/10/29 04:10:26;;;;;;;;;;;;;;;;;;5053555;28;20011;-75
2022/10/29 04:12:53;;;;;;;;;;;;;;;;;;5053943;28;20023;-75
2022/10/29 04:15:19;;;;;;;;;;;;;;;;;;5053870;28;19975;-75
2022/10/29 04:17:46;;;;;;;;;;;;;;;;;;5053043;28;20023;-75
2022/10/29 04:20:12;;;;;;;;;;;;;;;;;;5053374;28;20402;-75
2022/10/29 04:22:40;;;;;;;;;;;;;;;;;;5053453;28;20024;-75
2022/10/29 04:25:07;;;;;;;;;;;;;;;;;;5053663;28;20015;-75
2022/10/29 04:27:33;;;;;;;;;;;;;;;;;;5053371;28;19964;-75
2022/10/29 04:30:00;;;;;;;;;;;;;;;;;;5053391;28;20007;-76
2022/10/29 04:32:27;;;;;;;;;;;;;;;;;;5053439;28;20004;-75
2022/10/29 04:34:53;;;;;;;;;;;;;;;;;;5053381;28;20011;-76
2022/10/29 04:37:20;;;;;;;;;;;;;;;;;;5053372;28;19987;-76
2022/10/29 04:39:48;;;;;;;;;;;;;;;;;;5053441;28;20545;-76
2022/10/29 04:42:14;;;;;;;;;;;;;;;;;;5053401;28;19968;-76
2022/10/29 04:44:41;;;;;;;;;;;;;;;;;;5053093;28;19960;-76
2022/10/29 04:47:07;;;;;;;;;;;;;;;;;;5052869;28;19932;-76
2022/10/29 04:49:33;;;;;;;;;;;;;;;;;;5052791;28;20007;-76
2022/10/29 04:52:00;;;;;;;;;;;;;;;;;;5053084;28;20363;-76
2022/10/29 04:54:26;;;;;;;;;;;;;;;;;;5052659;28;20007;-76
2022/10/29 04:56:54;;;;;;;;;;;;;;;;;;5052426;28;20020;-75
2022/10/29 04:59:21;;;;;;;;;;;;;;;;;;5052410;28;19935;-76
2022/10/29 05:01:47;;;;;;;;;;;;;;;;;;5052438;28;20394;-75
2022/10/29 05:04:13;;;;;;;;;;;;;;;;;;5067743;28;19967;-75
2022/10/29 05:06:40;;;;;;;;;;;;;;;;;;5072059;28;20483;-75
2022/10/29 05:09:06;;;;;;;;;;;;;;;;;;5072384;28;20334;-75
2022/10/29 05:11:33;;;;;;;;;;;;;;;;;;5072751;28;20035;-75
2022/10/29 05:14:01;;;;;;;;;;;;;;;;;;5072397;28;19959;-75
2022/10/29 05:16:27;;;;;;;;;;;;;;;;;;5072642;28;19925;-75
2022/10/29 05:18:53;;;;;;;;;;;;;;;;;;5072319;28;19924;-75
2022/10/29 05:21:20;;;;;;;;;;;;;;;;;;5072327;28;19975;-76
2022/10/29 05:23:46;;;;;;;;;;;;;;;;;;5072430;28;20007;-75
2022/10/29 05:26:13;;;;;;;;;;;;;;;;;;5072254;28;19947;-75
2022/10/29 05:28:39;;;;;;;;;;;;;;;;;;5071867;28;19929;-75
2022/10/29 05:31:07;;;;;;;;;;;;;;;;;;5072156;28;20019;-77
2022/10/29 05:33:33;;;;;;;;;;;;;;;;;;5072293;28;19977;-75
2022/10/29 05:36:00;;;;;;;;;;;;;;;;;;5072569;28;19963;-76
2022/10/29 05:38:27;;;;;;;;;;;;;;;;;;5071770;28;20384;-76
2022/10/29 05:40:53;;;;;;;;;;;;;;;;;;5072775;28;20015;-76
2022/10/29 05:43:19;;;;;;;;;;;;;;;;;;5072271;28;19968;-77
2022/10/29 05:45:46;;;;;;;;;;;;;;;;;;5072043;28;19994;-77
2022/10/29 05:48:14;;;;;;;;;;;;;;;;;;5072097;28;19972;-76
2022/10/29 05:50:40;;;;;;;;;;;;;;;;;;5075718;28;19924;-77
2022/10/29 05:53:07;;;;;;;;;;;;;;;;;;5073720;28;20011;-78
2022/10/29 05:55:34;;;;;;;;;;;;;;;;;;5073431;28;19924;-77
2022/10/29 05:58:02;;;;;;;;;;;;;;;;;;5074083;28;20077;-78
2022/10/29 06:00:29;;;;;;;;;;;;;;;;;;5073564;28;19924;-77
2022/10/29 06:02:56;;;;;;;;;;;;;;;;;;5069683;28;20703;-79
2022/10/29 06:05:24;;;;;;;;;;;;;;;;;;5055828;28;20409;-78
2022/10/29 06:07:54;;;;;;;;;;;;;;;;;;5054447;28;19935;-78
2022/10/29 06:10:21;;;;;;;;;;;;;;;;;;5052544;28;19932;-78
2022/10/29 06:12:47;;;;;;;;;;;;;;;;;;5052792;28;20032;-79
2022/10/29 06:15:14;;;;;;;;;;;;;;;;;;5054145;28;20047;-79
2022/10/29 06:17:41;;;;;;;;;;;;;;;;;;5054641;28;19925;-78
2022/10/29 06:20:08;;;;;;;;;;;;;;;;;;5055008;28;19925;-77
2022/10/29 06:22:36;;;;;;;;;;;;;;;;;;5057228;28;19925;-77
2022/10/29 06:25:03;;;;;;;;;;;;;;;;;;5058498;28;19964;-77
2022/10/29 06:27:29;;;;;;;;;;;;;;;;;;5060321;28;20276;-78
2022/10/29 06:29:56;;;;;;;;;;;;;;;;;;5056348;28;20031;-78
2022/10/29 06:32:22;;;;;;;;;;;;;;;;;;5057947;28;19968;-79
2022/10/29 06:34:49;;;;;;;;;;;;;;;;;;5057817;28;19924;-79
2022/10/29 06:37:15;;;;;;;;;;;;;;;;;;5056289;28;19972;-77
2022/10/29 06:39:43;;;;;;;;;;;;;;;;;;5055761;28;20016;-77
2022/10/29 06:42:09;;;;;;;;;;;;;;;;;;5056195;28;19925;-78
2022/10/29 06:44:36;;;;;;;;;;;;;;;;;;5056105;28;20015;-77
2022/10/29 06:47:02;;;;;;;;;;;;;;;;;;5055624;28;19964;-76
2022/10/29 06:49:29;;;;;;;;;;;;;;;;;;5055421;28;19971;-76
2022/10/29 06:51:55;;;;;;;;;;;;;;;;;;5055563;28;19928;-76
2022/10/29 06:54:22;;;;;;;;;;;;;;;;;;5055583;28;20019;-77
2022/10/29 06:56:49;;;;;;;;;;;;;;;;;;5055398;28;20016;-77
2022/10/29 06:59:16;;;;;;;;;;;;;;;;;;5055926;28;20044;-77
2022/10/29 07:01:42;;;;;;;;;;;;;;;;;;5074049;28;19952;-77
2022/10/29 07:04:09;;;;;;;;;;;;;;;;;;5095740;28;19912;-77
2022/10/29 07:06:35;;;;;;;;;;;;;;;;;;5096592;28;19912;-76
2022/10/29 07:09:02;;;;;;;;;;;;;;;;;;5078409;28;19924;-76
2022/10/29 07:11:28;;;;;;;;;;;;;;;;;;5075894;28;19931;-77
2022/10/29 07:13:56;;;;;;;;;;;;;;;;;;5075244;28;19975;-76
2022/10/29 07:16:22;;;;;;;;;;;;;;;;;;5075141;28;19924;-76
2022/10/29 07:18:49;;;;;;;;;;;;;;;;;;5074503;28;20414;-76
2022/10/29 07:21:15;;;;;;;;;;;;;;;;;;5075139;28;20011;-77
2022/10/29 07:23:42;;;;;;;;;;;;;;;;;;5075073;28;19964;-76
2022/10/29 07:26:08;;;;;;;;;;;;;;;;;;5074969;28;19929;-75
2022/10/29 07:28:35;;;;;;;;;;;;;;;;;;5074487;28;19971;-76
2022/10/29 07:31:03;;;;;;;;;;;;;;;;;;5074780;28;19968;-77
2022/10/29 07:33:30;;;;;;;;;;;;;;;;;;5074880;28;19924;-77
2022/10/29 07:35:57;;;;;;;;;;;;;;;;;;5073378;28;20397;-76
2022/10/29 07:38:23;;;;;;;;;;;;;;;;;;5074439;28;20015;-77
2022/10/29 07:40:50;;;;;;;;;;;;;;;;;;5074551;28;20380;-77
2022/10/29 07:43:17;;;;;;;;;;;;;;;;;;5074943;28;19990;-77
2022/10/29 07:45:44;;;;;;;;;;;;;;;;;;5074359;28;20446;-78
2022/10/29 07:48:12;;;;;;;;;;;;;;;;;;5076032;28;19924;-78
2022/10/29 07:50:39;;;;;;;;;;;;;;;;;;5076080;28;20362;-76
2022/10/29 07:53:06;;;;;;;;;;;;;;;;;;5074647;28;20448;-77
2022/10/29 07:55:32;;;;;;;;;;;;;;;;;;5074308;28;20363;-77
2022/10/29 07:58:01;;;;;;;;;;;;;;;;;;5074200;28;19967;-77
2022/10/29 08:00:27;;;;;;;;;;;;;;;;;;5074196;28;19924;-77
2022/10/29 08:02:54;;;;;;;;;;;;;;;;;;5070198;28;19924;-77
2022/10/29 08:05:22;;;;;;;;;;;;;;;;;;5054432;28;20244;-77
2022/10/29 08:07:49;;;;;;;;;;;;;;;;;;5053602;28;19929;-76
2022/10/29 08:10:16;;;;;;;;;;;;;;;;;;5053991;28;20400;-76
2022/10/29 08:12:48;;;;;;;;;;;;;;;;;;5053899;28;19979;-77
2022/10/29 08:15:15;;;;;;;;;;;;;;;;;;5053933;28;19967;-77
2022/10/29 08:17:41;;;;;;;;;;;;;;;;;;5054184;28;20015;-78
2022/10/29 08:20:08;;;;;;;;;;;;;;;;;;5053900;28;19976;-77
2022/10/29 08:22:36;;;;;;;;;;;;;;;;;;5054124;28;19925;-78
2022/10/29 08:25:03;;;;;;;;;;;;;;;;;;5055786;28;19925;-78
2022/10/29 08:27:29;;;;;;;;;;;;;;;;;;5054850;28;20388;-78
2022/10/29 08:29:56;;;;;;;;;;;;;;;;;;5057248;28;20372;-78
2022/10/29 08:32:22;;;;;;;;;;;;;;;;;;5056436;28;20353;-78
2022/10/29 08:34:49;;;;;;;;;;;;;;;;;;5054037;28;19972;-78
2022/10/29 08:37:15;;;;;;;;;;;;;;;;;;5053124;28;19975;-78
2022/10/29 08:39:43;;;;;;;;;;;;;;;;;;5053774;28;19987;-78
2022/10/29 08:42:16;;;;;;;;;;;;;;;;;;5053323;28;19975;-78
2022/10/29 08:44:56;;;;;;;;;;;;;;;;;;5053703;28;19975;-78
2022/10/29 08:47:23;;;;;;;;;;;;;;;;;;5053424;28;20015;-78
2022/10/29 08:49:53;;;;;;;;;;;;;;;;;;5057225;28;19925;-79
2022/10/29 08:52:23;;;;;;;;;;;;;;;;;;5055452;28;19929;-78
2022/10/29 08:54:54;;;;;;;;;;;;;;;;;;5054493;28;19967;-78
2022/10/29 08:57:21;;;;;;;;;;;;;;;;;;5053178;28;20003;-77
2022/10/29 08:59:54;;;;;;;;;;;;;;;;;;5052905;28;19947;-77
2022/10/29 09:02:20;;;;;;;;;;;;;;;;;;5053228;28;20007;-77
2022/10/29 09:04:47;;;;;;;;;;;;;;;;;;5074164;28;19924;-77
2022/10/29 09:07:19;;;;;;;;;;;;;;;;;;5072450;28;19924;-78
2022/10/29 09:09:49;;;;;;;;;;;;;;;;;;5075074;28;19979;-79
2022/10/29 09:12:25;;;;;;;;;;;;;;;;;;5076971;28;19924;-79
2022/10/29 09:15:01;;;;;;;;;;;;;;;;;;5077156;28;20418;-79
2022/10/29 09:17:30;;;;;;;;;;;;;;;;;;5076528;28;19958;-78
2022/10/29 09:20:08;;;;;;;;;;;;;;;;;;5073660;28;19978;-78
2022/10/29 09:22:41;;;;;;;;;;;;;;;;;;5073410;28;20395;-79
2022/10/29 09:25:14;;;;;;;;;;;;;;;;;;5073614;28;20023;-78
2022/10/29 09:27:48;;;;;;;;;;;;;;;;;;5072384;28;20225;-79
2022/10/29 09:30:15;;;;;;;;;;;;;;;;;;5073372;28;20022;-78
2022/10/29 09:32:43;;;;;;;;;;;;;;;;;;5074031;28;19978;-78
2022/10/29 09:35:13;;;;;;;;;;;;;;;;;;5074565;28;20023;-79
2022/10/29 09:37:42;;;;;;;;;;;;;;;;;;5073190;28;19935;-78
2022/10/29 09:40:15;;;;;;;;;;;;;;;;;;5074401;28;19924;-77
2022/10/29 09:42:43;;;;;;;;;;;;;;;;;;5080227;28;19983;-79
2022/10/29 09:45:15;;;;;;;;;;;;;;;;;;5076190;28;19980;-78
2022/10/29 09:47:46;;;;;;;;;;;;;;;;;;5074330;28;20350;-78
2022/10/29 09:50:16;;;;;;;;;;;;;;;;;;5078089;28;19987;-79
2022/10/29 09:52:44;;;;;;;;;;;;;;;;;;5095406;28;19913;-78
2022/10/29 09:55:15;;;;;;;;;;;;;;;;;;5087875;28;19913;-77
2022/10/29 09:57:42;;;;;;;;;;;;;;;;;;5060862;28;20448;-78
2022/10/29 10:00:17;;;;;;;;;;;;;;;;;;5053242;28;19994;-78
2022/10/29 10:02:44;;;;;;;;;;;;;;;;;;5056168;28;19936;-78
2022/10/29 10:05:14;;;;;;;;;;;;;;;;;;5072832;28;19931;-78
2022/10/29 10:07:41;;;;;;;;;;;;;;;;;;5072316;28;20392;-78
2022/10/29 10:10:19;;;;;;;;;;;;;;;;;;5072493;28;20301;-77
2022/10/29 10:12:46;;;;;;;;;;;;;;;;;;5073253;28;19925;-78
2022/10/29 10:15:27;;;;;;;;;;;;;;;;;;5072438;28;19925;-78
2022/10/29 10:17:58;;;;;;;;;;;;;;;;;;5071857;28;19930;-77
2022/10/29 10:20:29;;;;;;;;;;;;;;;;;;5075646;28;19990;-78
2022/10/29 10:22:56;;;;;;;;;;;;;;;;;;5076582;28;20015;-78
2022/10/29 10:25:31;;;;;;;;;;;;;;;;;;5089241;28;19950;-78
2022/10/29 10:27:58;;;;;;;;;;;;;;;;;;5085822;28;20023;-78
2022/10/29 10:30:26;;;;;;;;;;;;;;;;;;5079547;28;19924;-78
2022/10/29 10:32:52;;;;;;;;;;;;;;;;;;5091030;28;20360;-78
2022/10/29 10:35:29;;;;;;;;;;;;;;;;;;5075289;28;19983;-78
2022/10/29 10:37:55;;;;;;;;;;;;;;;;;;5079333;28;19964;-78
2022/10/29 10:40:24;;;;;;;;;;;;;;;;;;5075907;28;19972;-78
2022/10/29 10:42:52;;;;;;;;;;;;;;;;;;5078513;28;20006;-78
2022/10/29 10:45:23;;;;;;;;;;;;;;;;;;5084164;28;19925;-77
2022/10/29 10:47:56;;;;;;;;;;;;;;;;;;5082130;28;20002;-79
2022/10/29 10:50:25;;;;;;;;;;;;;;;;;;5074254;28;19936;-78
2022/10/29 10:52:53;;;;;;;;;;;;;;;;;;5079224;28;19975;-78
2022/10/29 10:55:22;;;;;;;;;;;;;;;;;;5080143;28;19964;-79
2022/10/29 10:57:52;;;;;;;;;;;;;;;;;;5090225;28;19928;-79
2022/10/29 11:00:20;;;;;;;;;;;;;;;;;;5077049;28;19924;-78
2022/10/29 11:02:48;;;;;;;;;;;;;;;;;;5068890;28;20444;-78
2022/10/29 11:05:18;;;;;;;;;;;;;;;;;;5051849;28;19975;-78
2022/10/29 11:07:47;;;;;;;;;;;;;;;;;;5051732;28;19925;-77
2022/10/29 11:10:14;;;;;;;;;;;;;;;;;;5052563;28;19925;-78
2022/10/29 11:12:42;;;;;;;;;;;;;;;;;;5055686;28;19989;-78
2022/10/29 11:15:13;;;;;;;;;;;;;;;;;;5055894;28;19925;-79
2022/10/29 11:17:45;;;;;;;;;;;;;;;;;;5058140;28;19925;-78
2022/10/29 11:20:14;;;;;;;;;;;;;;;;;;5060666;28;19929;-78
2022/10/29 11:22:50;;;;;;;;;;;;;;;;;;5058629;28;19939;-77
2022/10/29 11:25:17;;;;;;;;;;;;;;;;;;5055816;28;19964;-78
2022/10/29 11:27:47;;;;;;;;;;;;;;;;;;5055339;28;20430;-78
2022/10/29 11:30:15;;;;;;;;;;;;;;;;;;5057268;28;19964;-78
2022/10/29 11:32:52;;;;;;;;;;;;;;;;;;5055328;28;19979;-79
2022/10/29 11:35:22;;;;;;;;;;;;;;;;;;5056195;28;19928;-78
2022/10/29 11:37:53;;;;;;;;;;;;;;;;;;5059344;28;19960;-79
2022/10/29 11:40:21;;;;;;;;;;;;;;;;;;5056136;28;19932;-77
2022/10/29 11:42:48;;;;;;;;;;;;;;;;;;5056069;28;20364;-78
2022/10/29 11:45:19;;;;;;;;;;;;;;;;;;5063427;28;20222;-77
2022/10/29 11:47:54;;;;;;;;;;;;;;;;;;5060972;28;19975;-78
2022/10/29 11:50:26;;;;;;;;;;;;;;;;;;5058985;28;19935;-78
2022/10/29 11:52:55;;;;;;;;;;;;;;;;;;5058245;28;20011;-78
2022/10/29 11:55:30;;;;;;;;;;;;;;;;;;5057702;28;19971;-78
2022/10/29 11:57:59;;;;;;;;;;;;;;;;;;5054775;28;20015;-78
2022/10/29 12:00:26;;;;;;;;;;;;;;;;;;5054769;28;19925;-78
2022/10/29 12:03:06;;;;;;;;;;;;;;;;;;5058386;28;20015;-78
2022/10/29 12:05:36;;;;;;;;;;;;;;;;;;5074412;28;20011;-77
2022/10/29 12:08:12;;;;;;;;;;;;;;;;;;5074472;28;20011;-77
2022/10/29 12:10:45;;;;;;;;;;;;;;;;;;5074860;28;19962;-78
2022/10/29 12:13:16;;;;;;;;;;;;;;;;;;5074167;28;20019;-78
2022/10/29 12:15:46;;;;;;;;;;;;;;;;;;5074650;28;19931;-78
2022/10/29 12:18:17;;;;;;;;;;;;;;;;;;5073703;28;19925;-78
2022/10/29 12:20:47;;;;;;;;;;;;;;;;;;5074567;28;20027;-78
2022/10/29 12:23:24;;;;;;;;;;;;;;;;;;5073685;28;19928;-77
2022/10/29 12:25:56;;;;;;;;;;;;;;;;;;5074199;28;19929;-77
2022/10/29 12:28:28;;;;;;;;;;;;;;;;;;5073673;28;19935;-77
2022/10/29 12:31:04;;;;;;;;;;;;;;;;;;5077231;28;20015;-78
2022/10/29 12:33:36;;;;;;;;;;;;;;;;;;5079333;28;20398;-78
2022/10/29 12:36:05;;;;;;;;;;;;;;;;;;5082065;28;19924;-78
2022/10/29 12:38:36;;;;;;;;;;;;;;;;;;5088398;28;19916;-79
2022/10/29 12:41:04;;;;;;;;;;;;;;;;;;5074987;28;19947;-78
2022/10/29 12:43:33;;;;;;;;;;;;;;;;;;5062943;28;19935;-77
2022/10/29 12:46:02;;;;;;;;;;;;;;;;;;5055760;28;19925;-77
2022/10/29 12:48:33;;;;;;;;;;;;;;;;;;5053768;28;19964;-78
2022/10/29 12:51:03;;;;;;;;;;;;;;;;;;5054023;28;19925;-77
2022/10/29 12:53:32;;;;;;;;;;;;;;;;;;5053697;28;19960;-77
2022/10/29 12:55:59;;;;;;;;;;;;;;;;;;5053539;28;20007;-77
2022/10/29 12:58:48;;;;;;;;;;;;;;;;;;5053824;28;19996;-76
2022/10/29 13:01:45;;;;;;;;;;;;;;;;;;5054442;28;19935;-77
2022/10/29 13:04:25;;;;;;;;;;;;;;;;;;5007377;28;19925;-77
2022/10/29 13:07:02;;;;;;;;;;;;;;;;;;5065232;28;19980;-77
2022/10/29 13:09:29;;;;;;;;;;;;;;;;;;5073796;28;19970;-77
2022/10/29 13:11:57;;;;;;;;;;;;;;;;;;5074558;28;20020;-77
2022/10/29 13:14:26;;;;;;;;;;;;;;;;;;5074043;28;20394;-78
2022/10/29 13:16:53;;;;;;;;;;;;;;;;;;5073438;28;20019;-79
2022/10/29 13:19:25;;;;;;;;;;;;;;;;;;5072871;28;19968;-78
2022/10/29 13:21:59;;;;;;;;;;;;;;;;;;5074246;28;19925;-77
2022/10/29 13:24:26;;;;;;;;;;;;;;;;;;5073455;28;19946;-78
2022/10/29 13:26:53;;;;;;;;;;;;;;;;;;5073079;28;19967;-78
2022/10/29 13:29:35;;;;;;;;;;;;;;;;;;5075198;28;19970;-77
2022/10/29 13:32:05;;;;;;;;;;;;;;;;;;5073697;28;19992;-76
2022/10/29 13:34:50;;;;;;;;;;;;;;;;;;5074843;28;19971;-76
2022/10/29 13:37:36;;;;;;;;;;;;;;;;;;5073222;28;20399;-79
2022/10/29 13:40:20;;;;;;;;;;;;;;;;;;5076490;28;19958;-78
2022/10/29 13:42:50;;;;;;;;;;;;;;;;;;5074801;28;20379;-78
2022/10/29 13:45:17;;;;;;;;;;;;;;;;;;5073494;28;20537;-77
2022/10/29 13:47:45;;;;;;;;;;;;;;;;;;5073096;28;20011;-77
2022/10/29 13:50:15;;;;;;;;;;;;;;;;;;5073631;28;20451;-76
2022/10/29 13:52:41;;;;;;;;;;;;;;;;;;5074407;28;19928;-79
2022/10/29 13:55:08;;;;;;;;;;;;;;;;;;5077644;28;20065;-76
2022/10/29 13:57:36;;;;;;;;;;;;;;;;;;5074967;28;19986;-77
2022/10/29 14:00:05;;;;;;;;;;;;;;;;;;5073266;28;19963;-78
2022/10/29 14:02:48;;;;;;;;;;;;;;;;;;5071887;28;19956;-77
2022/10/29 14:05:17;;;;;;;;;;;;;;;;;;5053038;28;20071;-78
2022/10/29 14:07:47;;;;;;;;;;;;;;;;;;5052755;28;19983;-78
2022/10/29 14:10:17;;;;;;;;;;;;;;;;;;5052770;28;20011;-79
2022/10/29 14:12:45;;;;;;;;;;;;;;;;;;5053245;28;20016;-78
2022/10/29 14:15:13;;;;;;;;;;;;;;;;;;5052572;28;19925;-78
2022/10/29 14:17:40;;;;;;;;;;;;;;;;;;5052220;28;19925;-78
2022/10/29 14:20:19;;;;;;;;;;;;;;;;;;5052521;28;19925;-77
2022/10/29 14:22:45;;;;;;;;;;;;;;;;;;5053653;28;19982;-77
2022/10/29 14:25:29;;;;;;;;;;;;;;;;;;5056323;28;19931;-78
2022/10/29 14:28:08;;;;;;;;;;;;;;;;;;5056607;28;19948;-78
2022/10/29 14:30:34;;;;;;;;;;;;;;;;;;5056634;28;19925;-79
2022/10/29 14:33:00;;;;;;;;;;;;;;;;;;5056816;28;19925;-77
2022/10/29 14:35:29;;;;;;;;;;;;;;;;;;5056532;28;19983;-78
2022/10/29 14:37:55;;;;;;;;;;;;;;;;;;5056671;28;19960;-78
2022/10/29 14:40:23;;;;;;;;;;;;;;;;;;5059002;28;20216;-79
2022/10/29 14:42:53;;;;;;;;;;;;;;;;;;5061206;28;19931;-79
2022/10/29 14:45:21;;;;;;;;;;;;;;;;;;5058677;28;19947;-79
2022/10/29 14:47:49;;;;;;;;;;;;;;;;;;5061367;28;19975;-79
2022/10/29 14:50:18;;;;;;;;;;;;;;;;;;5061753;28;20028;-79
2022/10/29 14:52:48;;;;;;;;;;;;;;;;;;5061130;28;19931;-79
2022/10/29 14:55:17;;;;;;;;;;;;;;;;;;5061255;28;20000;-79
2022/10/29 14:57:44;;;;;;;;;;;;;;;;;;5060750;28;20399;-79
2022/10/29 15:00:21;;;;;;;;;;;;;;;;;;5061184;28;20398;-79
2022/10/29 15:02:48;;;;;;;;;;;;;;;;;;5061987;28;19972;-79
2022/10/29 15:05:21;;;;;;;;;;;;;;;;;;5076000;28;19978;-78
2022/10/29 15:07:49;;;;;;;;;;;;;;;;;;5075734;28;20530;-78
2022/10/29 15:10:17;;;;;;;;;;;;;;;;;;5076370;28;19944;-78
2022/10/29 15:12:45;;;;;;;;;;;;;;;;;;5076313;28;20372;-78
2022/10/29 15:15:20;;;;;;;;;;;;;;;;;;5075911;28;20373;-77
2022/10/29 15:17:48;;;;;;;;;;;;;;;;;;5075573;28;20400;-77
2022/10/29 15:20:19;;;;;;;;;;;;;;;;;;5075999;28;19974;-77
2022/10/29 15:22:45;;;;;;;;;;;;;;;;;;5076509;28;19970;-77
2022/10/29 15:25:17;;;;;;;;;;;;;;;;;;5092476;28;19916;-79
2022/10/29 15:27:43;;;;;;;;;;;;;;;;;;5100326;28;19923;-79
2022/10/29 15:30:17;;;;;;;;;;;;;;;;;;5095598;28;19931;-76
2022/10/29 15:32:44;;;;;;;;;;;;;;;;;;5077763;28;19925;-77
2022/10/29 15:35:10;;;;;;;;;;;;;;;;;;5060132;28;19924;-75
2022/10/29 15:37:41;;;;;;;;;;;;;;;;;;5055195;28;20024;-76
2022/10/29 15:40:11;;;;;;;;;;;;;;;;;;5055179;28;19929;-76
2022/10/29 15:42:39;;;;;;;;;;;;;;;;;;5055090;28;19925;-76
2022/10/29 15:45:22;;;;;;;;;;;;;;;;;;5054713;28;19931;-75
2022/10/29 15:47:49;;;;;;;;;;;;;;;;;;5056021;28;20358;-76
2022/10/29 15:50:17;;;;;;;;;;;;;;;;;;5064960;28;19964;-76
2022/10/29 15:52:44;;;;;;;;;;;;;;;;;;5065183;28;19968;-75
2022/10/29 15:55:13;;;;;;;;;;;;;;;;;;5060800;28;20016;-77
2022/10/29 15:57:41;;;;;;;;;;;;;;;;;;5053602;28;20024;-77
2022/10/29 16:00:08;;;;;;;;;;;;;;;;;;5054845;28;20299;-78
2022/10/29 16:02:34;;;;;;;;;;;;;;;;;;5056173;28;19968;-78
2022/10/29 16:05:01;;;;;;;;;;;;;;;;;;5074896;28;19964;-78
2022/10/29 16:07:27;;;;;;;;;;;;;;;;;;5074876;28;20011;-77
2022/10/29 16:09:54;;;;;;;;;;;;;;;;;;5074736;28;20015;-77
2022/10/29 16:12:21;;;;;;;;;;;;;;;;;;5075534;28;20011;-77
2022/10/29 16:14:48;;;;;;;;;;;;;;;;;;5074384;28;19931;-75
2022/10/29 16:17:16;;;;;;;;;;;;;;;;;;5074058;28;20007;-75
2022/10/29 16:19:42;;;;;;;;;;;;;;;;;;5074354;28;19924;-76
2022/10/29 16:22:11;;;;;;;;;;;;;;;;;;5074580;28;19944;-77
2022/10/29 16:24:38;;;;;;;;;;;;;;;;;;5073955;28;20007;-77
2022/10/29 16:27:05;;;;;;;;;;;;;;;;;;5074230;28;20450;-77
2022/10/29 16:29:32;;;;;;;;;;;;;;;;;;5073658;28;19924;-77
2022/10/29 16:31:59;;;;;;;;;;;;;;;;;;5073752;28;19978;-77
2022/10/29 16:34:26;;;;;;;;;;;;;;;;;;5073862;28;19946;-77
2022/10/29 16:36:52;;;;;;;;;;;;;;;;;;5073558;28;19947;-77
2022/10/29 16:39:19;;;;;;;;;;;;;;;;;;5073196;28;20015;-76
2022/10/29 16:41:45;;;;;;;;;;;;;;;;;;5073974;28;20015;-77
2022/10/29 16:44:12;;;;;;;;;;;;;;;;;;5074561;28;20017;-79
2022/10/29 16:46:39;;;;;;;;;;;;;;;;;;5074369;28;19924;-77
2022/10/29 16:49:06;;;;;;;;;;;;;;;;;;5073850;28;19978;-78
2022/10/29 16:51:33;;;;;;;;;;;;;;;;;;5073872;28;19924;-77
2022/10/29 16:53:59;;;;;;;;;;;;;;;;;;5073683;28;19975;-76
2022/10/29 16:56:26;;;;;;;;;;;;;;;;;;5074276;28;20003;-78